Time;durP1;ratioP1;P1;durP2;ratioP2;P2;SDS_P1;SDS_P2;PMS_P1;PMS_P2;Temp;Humidity;BMP_temperature;BMP_pressure;BME280_temperature;BME280_humidity;BME280_pressure;Samples;Min_cycle;Max_cycle;Signal;HPM_P1;HPM_P2
2021/06/11 06:01:20;;;;;;;14.63;11.68;;;;;;;18.44;89.04;99539.70;1662565;81;21578;-45
2021/06/11 06:03:48;;;;;;;15.10;12.03;;;;;;;18.64;89.20;99546.31;1590829;86;21036;-40
2021/06/11 06:06:15;;;;;;;22.17;10.63;;;;;;;18.80;87.54;99547.38;1640757;85;21640;-45
2021/06/11 06:08:43;;;;;;;14.58;10.68;;;;;;;18.97;86.66;99543.97;1635998;85;21647;-46
2021/06/11 06:11:14;;;;;;;14.25;10.95;;;;;;;19.15;84.95;99548.88;1646101;85;21067;-40
2021/06/11 06:18:07;;;;;;;11.65;9.28;;;;;;;19.39;80.61;99552.15;1642042;85;21110;-38
2021/06/11 06:20:56;;;;;;;14.18;8.35;;;;;;;19.50;79.54;99547.66;1639775;86;21184;-38
2021/06/11 06:24:03;;;;;;;11.10;7.83;;;;;;;19.58;79.57;99545.05;1639097;86;21108;-39
2021/06/11 06:27:15;;;;;;;12.80;7.40;;;;;;;19.61;78.83;99540.93;1639098;85;21451;-38
2021/06/11 06:30:25;;;;;;;7.97;7.10;;;;;;;19.68;78.19;99546.80;1670178;84;21103;-44
2021/06/11 06:33:24;;;;;;;9.68;7.50;;;;;;;19.80;77.01;99547.51;1610757;87;21520;-41
2021/06/11 06:36:01;;;;;;;8.75;7.67;;;;;;;19.99;77.13;99547.44;1647513;85;21452;-40
2021/06/11 06:38:32;;;;;;;8.95;8.05;;;;;;;20.17;76.98;99550.95;1660918;85;21626;-39
2021/06/11 06:41:08;;;;;;;11.38;8.40;;;;;;;20.38;77.03;99545.88;1646505;86;21060;-46
2021/06/11 06:43:39;;;;;;;12.33;8.00;;;;;;;20.56;75.26;99549.39;1664432;85;21124;-39
2021/06/11 06:46:08;;;;;;;10.00;8.28;;;;;;;20.70;74.92;99544.23;1663852;82;22079;-39
2021/06/11 06:48:38;;;;;;;8.48;7.55;;;;;;;20.78;74.23;99545.61;1672494;83;21052;-45
2021/06/11 06:51:26;;;;;;;9.48;7.55;;;;;;;20.78;73.69;99547.80;1661721;84;21104;-39
2021/06/11 06:54:24;;;;;;;13.22;7.80;;;;;;;20.71;73.60;99546.41;1672418;84;21053;-40
2021/06/11 07:00:14;;;;;;;10.43;7.42;;;;;;;20.63;75.03;99544.14;1671880;84;21133;-40
2021/06/11 07:02:44;;;;;;;6.17;5.58;;;;;;;20.58;75.58;99538.20;1648168;84;21232;-39
2021/06/11 07:05:15;;;;;;;6.50;5.28;;;;;;;20.53;73.28;99544.27;1668401;84;21108;-40
2021/06/11 07:07:59;;;;;;;6.67;4.47;;;;;;;20.40;73.12;99546.64;1677675;83;21200;-45
2021/06/11 07:10:34;;;;;;;7.25;4.62;;;;;;;20.24;72.67;99545.75;1668095;84;21065;-44
2021/06/11 07:13:02;;;;;;;8.95;4.20;;;;;;;20.04;73.22;99546.74;1681605;83;21086;-40
2021/06/11 07:15:29;;;;;;;6.00;4.58;;;;;;;19.87;73.91;99544.94;1701920;83;21050;-45
2021/06/11 07:17:57;;;;;;;6.42;4.35;;;;;;;19.75;73.26;99544.22;1681018;83;21106;-40
2021/06/11 07:20:24;;;;;;;10.32;4.45;;;;;;;19.64;73.73;99544.74;1701973;83;21334;-45
2021/06/11 07:22:52;;;;;;;7.05;5.40;;;;;;;19.59;74.54;99537.94;1684847;83;21117;-45
2021/06/11 07:25:19;;;;;;;5.78;4.92;;;;;;;19.53;75.49;99536.88;1681595;83;21061;-39
2021/06/11 07:27:45;;;;;;;6.72;5.85;;;;;;;19.49;75.40;99533.54;1675064;84;21058;-39
2021/06/11 07:30:15;;;;;;;7.45;6.20;;;;;;;19.45;75.67;99527.13;1665490;84;21043;-45
2021/06/11 07:32:43;;;;;;;9.38;7.05;;;;;;;19.41;75.76;99526.41;1671420;84;21070;-41
2021/06/11 07:35:14;;;;;;;10.03;8.85;;;;;;;19.37;76.41;99521.73;1666125;85;21464;-45
2021/06/11 07:37:42;;;;;;;13.08;11.40;;;;;;;19.37;76.50;99524.86;1672785;84;21752;-39
2021/06/11 07:40:13;;;;;;;13.18;11.25;;;;;;;19.34;76.78;99519.69;1669122;84;20975;-39
2021/06/11 07:42:40;;;;;;;13.70;12.40;;;;;;;19.36;76.96;99523.11;1676148;84;21117;-39
2021/06/11 07:45:08;;;;;;;15.85;12.28;;;;;;;19.38;77.23;99515.95;1644420;85;21087;-45
2021/06/11 07:51:37;;;;;;;10.98;9.38;;;;;;;19.59;73.27;99524.68;1678866;83;21654;-39
2021/06/11 07:54:10;;;;;;;11.40;9.28;;;;;;;19.92;73.10;99514.19;1663679;84;21117;-40
2021/06/11 07:56:37;;;;;;;9.28;8.10;;;;;;;20.19;71.42;99511.92;1679090;84;21171;-43
2021/06/11 07:59:04;;;;;;;9.03;7.47;;;;;;;20.40;70.97;99513.91;1676162;84;21109;-45
2021/06/11 08:01:34;;;;;;;9.18;8.35;;;;;;;20.57;70.93;99509.92;1688719;83;21058;-40
2021/06/11 08:04:02;;;;;;;9.15;8.15;;;;;;;20.72;70.27;99509.11;1680069;83;21116;-39
2021/06/11 08:06:46;;;;;;;6.90;5.87;;;;;;;20.90;71.39;99513.04;1661051;83;21081;-39
2021/06/11 08:09:44;;;;;;;6.65;5.80;;;;;;;21.10;67.55;99517.25;1715223;83;21168;-45
2021/06/11 08:12:22;;;;;;;6.15;5.30;;;;;;;21.35;69.20;99512.80;1713567;83;21066;-39
2021/06/11 08:15:11;;;;;;;5.65;5.05;;;;;;;21.60;67.51;99514.91;1699518;83;21373;-45
2021/06/11 08:17:52;;;;;;;7.58;4.97;;;;;;;21.62;65.86;99521.84;1673419;83;21053;-40
2021/06/11 08:20:19;;;;;;;5.45;4.95;;;;;;;21.45;66.91;99521.95;1703113;83;21403;-39
2021/06/11 08:22:46;;;;;;;6.25;5.65;;;;;;;21.38;66.70;99525.91;1700594;83;21093;-45
2021/06/11 08:25:13;;;;;;;7.28;6.37;;;;;;;21.47;68.61;99520.08;1719521;83;21021;-40
2021/06/11 08:27:41;;;;;;;10.82;6.00;;;;;;;21.72;67.56;99525.70;1702993;82;21755;-39
2021/06/11 08:30:10;;;;;;;11.48;6.95;;;;;;;21.96;65.84;99527.39;1665354;83;22443;-45
2021/06/11 08:32:40;;;;;;;10.23;6.15;;;;;;;22.06;63.77;99525.05;1699250;83;21526;-39
2021/06/11 08:35:08;;;;;;;9.40;6.87;;;;;;;22.17;64.53;99530.63;1709016;83;21649;-41
2021/06/11 08:37:36;;;;;;;7.35;5.00;;;;;;;22.29;64.64;99516.58;1713388;83;21549;-41
2021/06/11 08:40:04;;;;;;;7.58;4.55;;;;;;;22.40;62.20;99515.08;1718123;83;21578;-43
2021/06/11 08:42:33;;;;;;;8.30;5.33;;;;;;;22.43;61.00;99514.88;1715595;83;21612;-39
2021/06/11 08:45:07;;;;;;;6.03;4.80;;;;;;;22.40;62.67;99514.59;1713969;83;21592;-45
2021/06/11 08:47:37;;;;;;;7.15;5.45;;;;;;;22.39;62.83;99511.55;1696925;83;21055;-44
2021/06/11 08:50:05;;;;;;;10.43;5.60;;;;;;;22.48;62.09;99504.78;1689471;85;21040;-45
2021/06/11 08:52:32;;;;;;;7.92;5.47;;;;;;;22.49;60.90;99508.69;1688230;83;21129;-39
2021/06/11 08:54:59;;;;;;;6.42;4.62;;;;;;;22.45;61.38;99500.52;1683545;83;21057;-45
2021/06/11 08:57:26;;;;;;;7.42;5.42;;;;;;;22.56;59.93;99505.20;1639853;85;21134;-44
2021/06/11 08:59:55;;;;;;;4.58;4.17;;;;;;;22.66;60.12;99502.31;1684217;83;21565;-45
2021/06/11 09:02:39;;;;;;;5.97;5.35;;;;;;;22.75;61.08;99496.90;1646198;85;21033;-45
2021/06/11 09:05:36;;;;;;;7.55;5.37;;;;;;;22.83;61.53;99494.59;1692907;83;21128;-39
2021/06/11 09:08:24;;;;;;;5.15;3.90;;;;;;;22.86;61.16;99495.75;1687507;83;21098;-45
2021/06/11 09:11:25;;;;;;;4.37;3.55;;;;;;;22.74;61.19;99498.71;1684841;83;21059;-45
2021/06/11 09:14:16;;;;;;;6.50;3.25;;;;;;;22.46;61.23;99494.71;1668603;85;21062;-39
2021/06/11 09:16:55;;;;;;;5.47;3.00;;;;;;;22.15;61.71;99488.59;1653388;84;21445;-45
2021/06/11 09:19:37;;;;;;;3.52;3.22;;;;;;;22.06;62.30;99503.75;1665310;84;21151;-45
2021/06/11 09:22:19;;;;;;;4.05;3.62;;;;;;;22.08;62.87;99493.84;1613091;88;21867;-39
2021/06/11 09:25:28;;;;;;;3.70;3.40;;;;;;;22.08;63.62;99495.66;1637573;86;21590;-44
2021/06/11 09:28:07;;;;;;;3.77;3.42;;;;;;;21.99;63.49;99498.41;1638885;86;21405;-40
2021/06/11 09:30:43;;;;;;;4.03;3.62;;;;;;;21.86;64.68;99500.06;1671432;84;21259;-45
2021/06/11 09:33:25;;;;;;;3.80;3.40;;;;;;;21.76;64.23;99498.44;1668209;84;21408;-40
2021/06/11 09:36:04;;;;;;;3.25;3.00;;;;;;;21.68;65.33;99493.54;1638111;85;21086;-45
2021/06/11 09:38:36;;;;;;;3.52;3.22;;;;;;;21.60;66.23;99499.80;1652196;85;21066;-45
2021/06/11 09:41:08;;;;;;;4.87;2.98;;;;;;;21.55;67.00;99499.20;1666744;84;22115;-45
2021/06/11 09:43:35;;;;;;;4.05;3.25;;;;;;;21.53;67.52;99494.45;1622350;88;21176;-39
2021/06/11 09:46:07;;;;;;;4.45;3.72;;;;;;;21.51;68.96;99488.33;1662281;84;21046;-45
2021/06/11 09:48:45;;;;;;;3.30;2.98;;;;;;;21.52;68.15;99492.73;1678010;84;22097;-45
2021/06/11 09:51:16;;;;;;;3.08;2.77;;;;;;;21.50;65.88;99494.13;1683135;83;21128;-44
2021/06/11 09:53:43;;;;;;;4.03;2.77;;;;;;;21.50;65.96;99491.47;1692151;85;21420;-42
2021/06/11 09:56:22;;;;;;;3.62;2.80;;;;;;;21.59;67.75;99484.78;1696165;83;21435;-46
2021/06/11 09:59:01;;;;;;;2.83;2.62;;;;;;;21.83;69.22;99484.28;1669290;85;21556;-45
2021/06/11 10:01:37;;;;;;;3.05;2.58;;;;;;;22.02;65.82;99492.89;1671562;84;21111;-40
2021/06/11 10:04:46;;;;;;;2.55;2.35;;;;;;;21.89;64.04;99489.25;1664035;85;21886;-45
2021/06/11 10:07:13;;;;;;;2.95;2.52;;;;;;;21.71;64.93;99484.05;1678388;84;21017;-40
2021/06/11 10:09:46;;;;;;;2.92;2.65;;;;;;;21.61;64.45;99488.67;1676705;84;21087;-46
2021/06/11 10:12:13;;;;;;;3.75;2.85;;;;;;;21.60;64.11;99498.94;1677952;84;21677;-40
2021/06/11 10:14:43;;;;;;;2.70;2.50;;;;;;;21.56;63.40;99495.58;1635851;85;21059;-40
2021/06/11 10:17:10;;;;;;;3.00;2.62;;;;;;;21.54;64.15;99500.14;1646169;84;21674;-44
2021/06/11 10:19:38;;;;;;;2.75;2.55;;;;;;;21.53;62.83;99503.76;1680643;85;21059;-45
2021/06/11 10:22:06;;;;;;;2.65;2.45;;;;;;;21.52;62.42;99502.05;1691496;84;21639;-45
2021/06/11 10:24:34;;;;;;;3.77;2.55;;;;;;;21.52;61.71;99503.38;1685316;85;21075;-39
2021/06/11 10:27:02;;;;;;;2.77;2.58;;;;;;;21.55;64.07;99508.52;1675374;84;21080;-40
2021/06/11 10:29:29;;;;;;;3.22;2.98;;;;;;;21.58;64.98;99501.70;1715085;84;21080;-45
2021/06/11 10:31:56;;;;;;;2.62;2.42;;;;;;;21.61;64.77;99505.97;1700362;84;21095;-40
2021/06/11 10:34:53;;;;;;;2.67;2.47;;;;;;;21.63;64.54;99505.42;1685037;85;21100;-39
2021/06/11 10:37:38;;;;;;;3.47;2.42;;;;;;;21.72;64.27;99506.20;1685098;85;21665;-39
2021/06/11 10:40:34;;;;;;;2.70;2.50;;;;;;;21.89;63.45;99500.75;1684091;85;21071;-44
2021/06/11 10:43:26;;;;;;;4.12;2.10;;;;;;;22.18;62.13;99495.05;1644452;87;21675;-39
2021/06/11 10:45:55;;;;;;;3.87;1.90;;;;;;;22.48;62.15;99491.46;1571097;90;21150;-45
2021/06/11 10:48:23;;;;;;;2.55;1.98;;;;;;;22.68;59.75;99484.44;1606805;89;21574;-39
2021/06/11 10:50:50;;;;;;;3.87;2.17;;;;;;;22.83;58.47;99479.45;1606666;88;21082;-45
2021/06/11 10:53:31;;;;;;;2.30;2.10;;;;;;;22.84;57.14;99474.97;1605507;89;21059;-39
